createdAt,value
2018-02-01T00:00:40.424Z,6.19
2018-02-01T00:01:41.057Z,6.19
2018-02-01T00:02:40.426Z,6.19
2018-02-01T00:03:40.200Z,6.19
2018-02-01T00:04:40.410Z,6.19
2018-02-01T00:05:40.428Z,6.19
2018-02-01T00:06:41.271Z,6.19
2018-02-01T00:07:40.380Z,6.19
2018-02-01T00:08:40.859Z,6.19
2018-02-01T00:09:40.164Z,6.12
2018-02-01T00:10:40.274Z,6.12
2018-02-01T00:11:40.722Z,6.12
2018-02-01T00:12:40.342Z,6.12
2018-02-01T00:13:40.217Z,6.12
2018-02-01T00:14:40.077Z,6.12
2018-02-01T00:15:40.284Z,6.06
2018-02-01T00:16:40.139Z,6.06
2018-02-01T00:17:39.989Z,6.06
2018-02-01T00:18:40.050Z,6.06
2018-02-01T00:19:40.141Z,6.06
2018-02-01T00:20:40.898Z,6
2018-02-01T00:21:40.375Z,6.06
2018-02-01T00:22:40.870Z,6.06
2018-02-01T00:23:40.067Z,6.06
2018-02-01T00:24:40.175Z,6
2018-02-01T00:25:40.568Z,6
2018-02-01T00:26:40.190Z,5.94
2018-02-01T00:27:40.144Z,5.94
2018-02-01T00:28:40.328Z,5.87
2018-02-01T00:29:40.036Z,5.87
2018-02-01T00:30:40.296Z,5.87
2018-02-01T00:31:40.143Z,5.81
2018-02-01T00:32:41.131Z,5.87
2018-02-01T00:33:40.145Z,5.81
2018-02-01T00:34:40.300Z,5.81
2018-02-01T00:35:40.732Z,5.81
2018-02-01T00:36:40.226Z,5.81
2018-02-01T00:37:41.145Z,5.81
2018-02-01T00:38:40.058Z,5.81
2018-02-01T00:39:40.413Z,5.75
2018-02-01T00:40:41.482Z,5.81
2018-02-01T00:41:40.694Z,5.81
2018-02-01T00:42:42.008Z,5.81
2018-02-01T00:43:40.274Z,5.81
2018-02-01T00:44:42.646Z,5.75
2018-02-01T00:45:41.318Z,5.75
2018-02-01T00:46:40.376Z,5.75
2018-02-01T00:47:40.407Z,5.81
2018-02-01T00:48:41.425Z,5.81
2018-02-01T00:49:41.076Z,5.81
2018-02-01T00:50:40.632Z,5.81
2018-02-01T00:51:40.643Z,5.75
2018-02-01T00:52:40.631Z,5.75
2018-02-01T00:53:41.063Z,5.81
2018-02-01T00:54:40.433Z,5.81
2018-02-01T00:55:40.503Z,5.75
2018-02-01T00:56:40.511Z,5.81
2018-02-01T00:57:41.384Z,5.75
2018-02-01T00:58:40.365Z,5.81
2018-02-01T00:59:40.598Z,5.75
2018-02-01T01:00:40.544Z,5.81
2018-02-01T01:01:40.502Z,5.81
2018-02-01T01:02:40.171Z,5.81
2018-02-01T01:03:40.680Z,5.81
2018-02-01T01:04:40.477Z,5.81
2018-02-01T01:05:41.507Z,5.81
2018-02-01T01:06:41.106Z,5.81
2018-02-01T01:07:40.338Z,5.87
2018-02-01T01:08:40.243Z,5.81
2018-02-01T01:09:40.343Z,5.81
2018-02-01T01:10:42.434Z,5.81
2018-02-01T01:11:41.337Z,5.75
2018-02-01T01:12:41.120Z,5.81
2018-02-01T01:13:40.393Z,5.81
2018-02-01T01:14:42.278Z,5.81
2018-02-01T01:15:41.158Z,5.75
2018-02-01T01:16:40.550Z,5.75
2018-02-01T01:17:41.493Z,5.75
2018-02-01T01:18:41.091Z,5.69
2018-02-01T01:19:40.870Z,5.75
2018-02-01T01:20:40.593Z,5.75
2018-02-01T01:21:40.699Z,5.75
2018-02-01T01:22:40.425Z,5.75
2018-02-01T01:23:41.146Z,5.75
2018-02-01T01:24:41.159Z,5.75
2018-02-01T01:25:41.145Z,5.75
2018-02-01T01:26:40.494Z,5.75
2018-02-01T01:27:41.854Z,5.75
2018-02-01T01:28:40.246Z,5.69
2018-02-01T01:29:40.447Z,5.69
2018-02-01T01:30:40.464Z,5.69
2018-02-01T01:31:41.257Z,5.69
2018-02-01T01:32:41.353Z,5.69
2018-02-01T01:33:40.532Z,5.69
2018-02-01T01:34:41.174Z,5.69
2018-02-01T01:35:41.622Z,5.69
2018-02-01T01:36:40.804Z,5.69
2018-02-01T01:37:40.352Z,5.69
2018-02-01T01:38:40.551Z,5.69
2018-02-01T01:39:41.277Z,5.69
2018-02-01T01:40:40.559Z,5.69
2018-02-01T01:41:40.814Z,5.69
2018-02-01T01:42:40.602Z,5.62
2018-02-01T01:43:40.707Z,5.62
2018-02-01T01:44:40.980Z,5.62
2018-02-01T01:45:40.592Z,5.62
2018-02-01T01:46:40.405Z,5.56
2018-02-01T01:47:41.132Z,5.62
2018-02-01T01:48:40.419Z,5.62
2018-02-01T01:49:40.472Z,5.62
2018-02-01T01:50:40.444Z,5.62
2018-02-01T01:51:40.667Z,5.62
2018-02-01T01:52:40.826Z,5.62
2018-02-01T01:53:40.813Z,5.56
2018-02-01T01:54:40.705Z,5.56
2018-02-01T01:55:40.412Z,5.5
2018-02-01T01:56:43.236Z,5.5
2018-02-01T01:57:40.482Z,5.5
2018-02-01T01:58:41.151Z,5.56
2018-02-01T01:59:40.664Z,5.56
2018-02-01T02:00:41.693Z,5.5
2018-02-01T02:01:42.010Z,5.56
2018-02-01T02:02:41.024Z,5.5
2018-02-01T02:03:40.240Z,5.5
2018-02-01T02:04:40.379Z,5.5
2018-02-01T02:05:40.687Z,5.56
2018-02-01T02:06:40.578Z,5.5
2018-02-01T02:07:41.072Z,5.5
2018-02-01T02:08:40.643Z,5.5
2018-02-01T02:09:41.045Z,5.56
2018-02-01T02:10:40.538Z,5.5
2018-02-01T02:11:40.950Z,5.5
2018-02-01T02:12:41.668Z,5.5
2018-02-01T02:13:42.423Z,5.5
2018-02-01T02:14:42.452Z,5.5
2018-02-01T02:15:40.617Z,5.44
2018-02-01T02:16:41.135Z,5.5
2018-02-01T02:17:40.489Z,5.5
2018-02-01T02:18:41.862Z,5.5
2018-02-01T02:19:41.707Z,5.5
2018-02-01T02:20:41.012Z,5.44
2018-02-01T02:21:42.530Z,5.37
2018-02-01T02:22:40.664Z,5.44
2018-02-01T02:23:40.762Z,5.44
2018-02-01T02:24:41.351Z,5.5
2018-02-01T02:25:40.539Z,5.44
2018-02-01T02:26:40.475Z,5.44
2018-02-01T02:27:41.191Z,5.5
2018-02-01T02:28:40.759Z,5.5
2018-02-01T02:29:40.712Z,5.5
2018-02-01T02:30:41.185Z,5.5
2018-02-01T02:31:40.758Z,5.5
2018-02-01T02:32:40.440Z,5.5
2018-02-01T02:33:40.867Z,5.5
2018-02-01T02:34:40.760Z,5.5
2018-02-01T02:35:40.231Z,5.5
2018-02-01T02:36:41.630Z,5.5
2018-02-01T02:37:40.885Z,5.44
2018-02-01T02:38:43.117Z,5.44
2018-02-01T02:39:40.870Z,5.44
2018-02-01T02:40:40.706Z,5.37
2018-02-01T02:41:40.959Z,5.31
2018-02-01T02:42:41.815Z,5.37
2018-02-01T02:43:40.396Z,5.31
2018-02-01T02:44:40.545Z,5.31
2018-02-01T02:45:40.653Z,5.37
2018-02-01T02:46:40.683Z,5.31
2018-02-01T02:47:40.829Z,5.31
2018-02-01T02:51:17.925Z,5.31
2018-02-01T02:51:41.031Z,5.31
2018-02-01T02:52:41.688Z,5.25
2018-02-01T02:53:40.490Z,5.25
2018-02-01T02:54:40.801Z,5.31
2018-02-01T02:55:41.972Z,5.31
2018-02-01T02:56:40.582Z,5.31
2018-02-01T02:57:40.778Z,5.31
2018-02-01T02:58:40.638Z,5.25
2018-02-01T02:59:40.502Z,5.25
2018-02-01T03:00:40.777Z,5.25
2018-02-01T03:01:40.433Z,5.25
2018-02-01T03:02:40.681Z,5.25
2018-02-01T03:03:40.746Z,5.25
2018-02-01T03:04:40.482Z,5.25
2018-02-01T03:05:41.319Z,5.25
2018-02-01T03:06:40.780Z,5.25
2018-02-01T03:07:40.652Z,5.31
2018-02-01T03:08:40.630Z,5.25
2018-02-01T03:09:41.140Z,5.25
2018-02-01T03:10:41.725Z,5.25
2018-02-01T03:11:40.730Z,5.31
2018-02-01T03:12:40.963Z,5.25
2018-02-01T03:13:40.675Z,5.31
2018-02-01T03:14:41.056Z,5.31
2018-02-01T03:15:41.017Z,5.25
2018-02-01T03:16:41.170Z,5.31
2018-02-01T03:17:41.312Z,5.25
2018-02-01T03:18:42.121Z,5.31
2018-02-01T03:19:40.809Z,5.25
2018-02-01T03:20:40.862Z,5.25
2018-02-01T03:21:40.923Z,5.19
2018-02-01T03:22:40.786Z,5.25
2018-02-01T03:23:40.941Z,5.19
2018-02-01T03:24:41.756Z,5.19
2018-02-01T03:25:41.771Z,5.19
2018-02-01T03:26:40.456Z,5.19
2018-02-01T03:27:41.396Z,5.19
2018-02-01T03:28:40.793Z,5.12
2018-02-01T03:29:40.844Z,5.12
2018-02-01T03:30:41.699Z,5.12
2018-02-01T03:31:41.097Z,5.12
2018-02-01T03:32:40.743Z,5.12
2018-02-01T03:33:40.987Z,5.12
2018-02-01T03:34:41.586Z,5.12
2018-02-01T03:35:40.939Z,5.12
2018-02-01T03:36:40.830Z,5.12
2018-02-01T03:37:40.973Z,5.12
2018-02-01T03:38:40.836Z,5.12
2018-02-01T03:39:42.113Z,5.12
2018-02-01T03:40:40.702Z,5.12
2018-02-01T03:41:40.591Z,5.12
2018-02-01T03:42:41.477Z,5.19
2018-02-01T03:43:41.961Z,5.19
2018-02-01T03:44:40.706Z,5.19
2018-02-01T03:45:40.370Z,5.12
2018-02-01T03:46:40.573Z,5.19
2018-02-01T03:47:40.784Z,5.19
2018-02-01T03:48:40.792Z,5.19
2018-02-01T03:49:41.446Z,5.19
2018-02-01T03:50:40.599Z,5.19
2018-02-01T03:51:40.824Z,5.12
2018-02-01T03:52:40.932Z,5.19
2018-02-01T03:55:41.747Z,5.25
2018-02-01T03:56:40.900Z,5.19
2018-02-01T03:57:40.753Z,5.25
2018-02-01T03:58:41.435Z,5.25
2018-02-01T03:59:40.913Z,5.25
2018-02-01T04:00:41.318Z,5.25
2018-02-01T04:01:40.816Z,5.25
2018-02-01T04:02:40.916Z,5.31
2018-02-01T04:03:42.849Z,5.25
2018-02-01T04:04:42.769Z,5.31
2018-02-01T04:05:41.183Z,5.31
2018-02-01T04:06:40.982Z,5.31
2018-02-01T04:07:41.103Z,5.25
2018-02-01T04:08:42.101Z,5.25
2018-02-01T04:09:41.220Z,5.25
2018-02-01T04:10:42.625Z,5.25
2018-02-01T04:11:41.074Z,5.25
2018-02-01T04:12:41.820Z,5.25
2018-02-01T04:13:40.583Z,5.31
2018-02-01T04:14:41.215Z,5.25
2018-02-01T04:15:41.300Z,5.31
2018-02-01T04:16:40.692Z,5.31
2018-02-01T04:17:40.866Z,5.31
2018-02-01T04:18:41.612Z,5.31
2018-02-01T04:19:42.231Z,5.31
2018-02-01T04:20:42.650Z,5.31
2018-02-01T04:21:41.284Z,5.31
2018-02-01T04:22:40.930Z,5.31
2018-02-01T04:23:42.589Z,5.31
2018-02-01T04:24:40.678Z,5.31
2018-02-01T04:25:41.352Z,5.31
2018-02-01T04:26:40.864Z,5.25
2018-02-01T04:27:41.550Z,5.31
2018-02-01T04:28:42.068Z,5.31
2018-02-01T04:29:42.526Z,5.25
2018-02-01T04:30:41.590Z,5.31
2018-02-01T04:31:40.990Z,5.31
2018-02-01T04:32:41.863Z,5.31
2018-02-01T04:33:41.977Z,5.31
2018-02-01T04:34:41.304Z,5.31
2018-02-01T04:35:41.682Z,5.31
2018-02-01T04:36:41.427Z,5.31
2018-02-01T04:37:42.474Z,5.31
2018-02-01T04:38:41.711Z,5.25
2018-02-01T04:39:40.813Z,5.31
2018-02-01T04:40:41.024Z,5.31
2018-02-01T04:41:41.287Z,5.31
2018-02-01T04:42:40.547Z,5.31
2018-02-01T04:43:40.460Z,5.31
2018-02-01T04:44:42.012Z,5.31
2018-02-01T04:45:41.720Z,5.31
2018-02-01T04:46:41.802Z,5.31
2018-02-01T04:47:41.539Z,5.31
2018-02-01T04:48:41.093Z,5.31
2018-02-01T04:52:12.353Z,5.31
2018-02-01T04:52:41.493Z,5.37
2018-02-01T04:53:39.955Z,5.31
2018-02-01T04:54:40.264Z,5.31
2018-02-01T04:55:40.749Z,5.31
2018-02-01T04:56:40.314Z,5.25
2018-02-01T04:57:40.457Z,5.25
2018-02-01T04:58:42.170Z,5.25
2018-02-01T04:59:40.035Z,5.25
2018-02-01T05:00:41.875Z,5.25
2018-02-01T05:01:39.821Z,5.25
2018-02-01T05:02:40.170Z,5.25
2018-02-01T05:03:40.128Z,5.25
2018-02-01T05:04:40.475Z,5.25
2018-02-01T05:05:40.751Z,5.25
2018-02-01T05:06:39.936Z,5.25
2018-02-01T05:07:40.156Z,5.25
2018-02-01T05:08:40.626Z,5.25
2018-02-01T05:09:41.787Z,5.19
2018-02-01T05:10:40.182Z,5.25
2018-02-01T05:11:40.401Z,5.25
2018-02-01T05:12:39.782Z,5.19
2018-02-01T05:13:41.002Z,5.25
2018-02-01T05:14:42.590Z,5.25
2018-02-01T05:15:40.665Z,5.25
2018-02-01T05:16:42.105Z,5.25
2018-02-01T05:17:41.274Z,5.25
2018-02-01T05:18:40.029Z,5.25
2018-02-01T05:19:39.870Z,5.25
2018-02-01T05:20:40.626Z,5.25
2018-02-01T05:21:39.974Z,5.25
2018-02-01T05:22:40.962Z,5.25
2018-02-01T05:23:40.813Z,5.25
2018-02-01T05:24:40.958Z,5.25
2018-02-01T05:25:40.696Z,5.25
2018-02-01T05:26:40.169Z,5.31
2018-02-01T05:27:40.882Z,5.25
2018-02-01T05:28:41.285Z,5.25
2018-02-01T05:29:40.718Z,5.25
2018-02-01T05:30:40.760Z,5.31
2018-02-01T05:31:41.034Z,5.25
2018-02-01T05:32:41.107Z,5.31
2018-02-01T05:33:40.231Z,5.25
2018-02-01T05:34:40.094Z,5.19
2018-02-01T05:35:42.137Z,5.25
2018-02-01T05:36:41.393Z,5.25
2018-02-01T05:37:39.942Z,5.25
2018-02-01T05:38:40.403Z,5.25
2018-02-01T05:39:40.980Z,5.25
2018-02-01T05:40:41.306Z,5.25
2018-02-01T05:42:10.927Z,5.31
2018-02-01T05:42:39.729Z,5.25
2018-02-01T05:43:40.990Z,5.25
2018-02-01T05:44:40.266Z,5.25
2018-02-01T05:45:40.580Z,5.25
2018-02-01T05:46:40.730Z,5.31
2018-02-01T05:47:40.189Z,5.25
2018-02-01T05:48:41.526Z,5.31
2018-02-01T05:49:40.768Z,5.31
2018-02-01T05:50:41.130Z,5.31
2018-02-01T05:51:41.736Z,5.31
2018-02-01T05:52:40.335Z,5.31
2018-02-01T05:53:40.400Z,5.31
2018-02-01T05:54:41.873Z,5.31
2018-02-01T05:55:41.190Z,5.31
2018-02-01T05:56:41.180Z,5.31
2018-02-01T05:57:42.745Z,5.31
2018-02-01T05:58:40.762Z,5.25
2018-02-01T05:59:40.683Z,5.31
2018-02-01T06:00:41.060Z,5.31
2018-02-01T06:01:41.055Z,5.31
2018-02-01T06:02:40.860Z,5.31
2018-02-01T06:03:41.276Z,5.31
2018-02-01T06:04:42.359Z,5.25
2018-02-01T06:05:41.418Z,5.31
2018-02-01T06:06:40.309Z,5.31
2018-02-01T06:07:41.247Z,5.31
2018-02-01T06:08:40.889Z,5.31
2018-02-01T06:09:40.976Z,5.25
2018-02-01T06:10:40.356Z,5.31
2018-02-01T06:11:42.350Z,5.31
2018-02-01T06:12:40.386Z,5.25
2018-02-01T06:13:40.196Z,5.25
2018-02-01T06:14:40.273Z,5.31
2018-02-01T06:15:40.600Z,5.25
2018-02-01T06:16:40.343Z,5.25
2018-02-01T06:17:39.964Z,5.25
2018-02-01T06:18:41.206Z,5.25
2018-02-01T06:19:40.842Z,5.25
2018-02-01T06:20:40.758Z,5.19
2018-02-01T06:21:40.921Z,5.25
2018-02-01T06:22:40.385Z,5.25
2018-02-01T06:23:40.726Z,5.25
2018-02-01T06:24:41.201Z,5.25
2018-02-01T06:25:41.142Z,5.25
2018-02-01T06:26:40.480Z,5.25
2018-02-01T06:27:40.651Z,5.25
2018-02-01T06:28:40.650Z,5.25
2018-02-01T06:29:40.787Z,5.25
2018-02-01T06:30:39.898Z,5.25
2018-02-01T06:31:40.992Z,5.19
2018-02-01T06:32:40.973Z,5.19
2018-02-01T06:33:40.210Z,5.19
2018-02-01T06:34:40.172Z,5.19
2018-02-01T06:35:40.111Z,5.12
2018-02-01T06:36:40.035Z,5.19
2018-02-01T06:37:40.101Z,5.12
2018-02-01T06:38:40.113Z,5.12
2018-02-01T06:39:40.546Z,5.12
2018-02-01T06:40:40.284Z,5.12
2018-02-01T06:41:40.355Z,5.19
2018-02-01T06:42:40.147Z,5.12
2018-02-01T06:43:39.907Z,5.19
2018-02-01T06:44:40.075Z,5.19
2018-02-01T06:45:40.624Z,5.19
2018-02-01T06:46:40.965Z,5.19
2018-02-01T06:47:40.500Z,5.19
2018-02-01T06:48:39.868Z,5.19
2018-02-01T06:49:40.004Z,5.19
2018-02-01T06:50:40.021Z,5.25
2018-02-01T06:51:40.116Z,5.19
2018-02-01T06:52:40.237Z,5.25
2018-02-01T06:53:40.323Z,5.19
2018-02-01T06:54:40.034Z,5.25
2018-02-01T06:55:40.180Z,5.19
2018-02-01T06:56:40.150Z,5.19
2018-02-01T06:57:40.202Z,5.12
2018-02-01T06:58:39.969Z,5.19
2018-02-01T06:59:40.273Z,5.19
2018-02-01T07:00:40.404Z,5.19
2018-02-01T07:01:40.279Z,5.19
2018-02-01T07:02:40.093Z,5.19
2018-02-01T07:03:40.083Z,5.19
2018-02-01T07:04:40.522Z,5.12
2018-02-01T07:05:40.172Z,5.12
2018-02-01T07:06:40.138Z,5.06
2018-02-01T07:07:40.172Z,5.06
2018-02-01T07:08:40.184Z,5.06
2018-02-01T07:09:40.361Z,5.06
2018-02-01T07:10:40.330Z,5.06
2018-02-01T07:11:40.516Z,5.06
2018-02-01T07:12:40.046Z,5
2018-02-01T07:13:40.301Z,5.06
2018-02-01T07:14:40.157Z,5.06
2018-02-01T07:15:40.133Z,5.06
2018-02-01T07:16:40.310Z,5
2018-02-01T07:17:40.643Z,5
2018-02-01T07:18:40.209Z,5
2018-02-01T07:19:40.329Z,5
2018-02-01T07:20:40.217Z,4.94
2018-02-01T07:21:40.279Z,5
2018-02-01T07:22:40.365Z,5
2018-02-01T07:23:40.243Z,5
2018-02-01T07:24:40.459Z,4.94
2018-02-01T07:25:40.349Z,4.94
2018-02-01T07:26:40.284Z,4.87
2018-02-01T07:27:40.312Z,4.87
2018-02-01T07:28:40.062Z,4.87
2018-02-01T07:29:40.194Z,4.87
2018-02-01T07:30:40.339Z,4.87
2018-02-01T07:31:40.334Z,4.87
2018-02-01T07:32:40.073Z,4.87
2018-02-01T07:33:40.301Z,4.87
2018-02-01T07:34:40.260Z,4.87
2018-02-01T07:35:40.128Z,4.87
2018-02-01T07:36:40.138Z,4.87
2018-02-01T07:37:40.386Z,4.87
2018-02-01T07:38:40.258Z,4.87
2018-02-01T07:39:40.361Z,4.81
2018-02-01T07:40:40.375Z,4.87
2018-02-01T07:41:40.108Z,4.87
2018-02-01T07:42:40.094Z,4.87
2018-02-01T07:43:40.089Z,4.87
2018-02-01T07:44:40.211Z,4.81
2018-02-01T07:45:40.358Z,4.87
2018-02-01T07:46:40.072Z,4.81
2018-02-01T07:47:40.602Z,4.81
2018-02-01T07:48:40.360Z,4.87
2018-02-01T07:49:40.236Z,4.87
2018-02-01T07:50:40.390Z,4.87
2018-02-01T07:51:40.226Z,4.87
2018-02-01T07:52:41.592Z,4.87
2018-02-01T07:53:40.550Z,4.87
2018-02-01T07:54:40.445Z,4.87
2018-02-01T07:55:40.550Z,4.87
2018-02-01T07:56:40.443Z,4.94
2018-02-01T07:57:40.235Z,4.87
2018-02-01T07:58:40.216Z,4.87
2018-02-01T07:59:40.249Z,4.87
2018-02-01T08:00:40.212Z,4.94
2018-02-01T08:01:40.332Z,4.87
2018-02-01T08:02:40.223Z,4.87
2018-02-01T08:03:41.446Z,4.94
2018-02-01T08:04:40.490Z,4.94
2018-02-01T08:05:40.269Z,4.94
2018-02-01T08:06:40.435Z,4.94
2018-02-01T08:07:40.340Z,4.94
2018-02-01T08:08:41.312Z,4.94
2018-02-01T08:09:40.168Z,4.94
2018-02-01T08:10:40.166Z,4.94
2018-02-01T08:11:40.336Z,5
2018-02-01T08:12:40.429Z,4.94
2018-02-01T08:13:40.222Z,4.87
2018-02-01T08:14:40.285Z,4.87
2018-02-01T08:15:40.360Z,4.81
2018-02-01T08:16:40.502Z,4.81
2018-02-01T08:17:41.002Z,4.81
2018-02-01T08:18:40.325Z,4.81
2018-02-01T08:19:40.251Z,4.81
2018-02-01T08:20:40.237Z,4.81
2018-02-01T08:21:40.312Z,4.81
2018-02-01T08:22:40.314Z,4.81
2018-02-01T08:23:40.487Z,4.81
2018-02-01T08:24:40.523Z,4.81
2018-02-01T08:25:40.361Z,4.75
2018-02-01T08:26:40.580Z,4.75
2018-02-01T08:27:40.182Z,4.81
2018-02-01T08:28:40.303Z,4.75
2018-02-01T08:29:40.182Z,4.75
2018-02-01T08:30:40.565Z,4.69
2018-02-01T08:31:40.427Z,4.69
2018-02-01T08:32:40.418Z,4.69
2018-02-01T08:33:40.654Z,4.75
2018-02-01T08:34:40.233Z,4.75
2018-02-01T08:35:40.319Z,4.75
2018-02-01T08:36:40.428Z,4.75
2018-02-01T08:37:41.004Z,4.75
2018-02-01T08:38:40.722Z,4.75
2018-02-01T08:39:40.469Z,4.75
2018-02-01T08:40:40.184Z,4.75
2018-02-01T08:41:40.297Z,4.75
2018-02-01T08:42:40.188Z,4.75
2018-02-01T08:43:40.881Z,4.75
2018-02-01T08:44:40.380Z,4.75
2018-02-01T08:45:40.526Z,4.75
2018-02-01T08:46:40.403Z,4.75
2018-02-01T08:47:40.437Z,4.75
2018-02-01T08:48:40.355Z,4.75
2018-02-01T08:49:40.390Z,4.81
2018-02-01T08:50:40.441Z,4.75
2018-02-01T08:51:40.559Z,4.75
2018-02-01T08:52:41.085Z,4.75
2018-02-01T08:53:40.756Z,4.69
2018-02-01T08:54:40.947Z,4.69
2018-02-01T08:55:40.961Z,4.69
2018-02-01T08:56:41.219Z,4.69
2018-02-01T08:57:40.700Z,4.69
2018-02-01T08:58:41.013Z,4.69
2018-02-01T08:59:40.916Z,4.69
2018-02-01T09:00:41.866Z,4.69
2018-02-01T09:01:40.747Z,4.69
2018-02-01T09:02:40.974Z,4.69
2018-02-01T09:03:40.924Z,4.69
2018-02-01T09:04:41.494Z,4.69
2018-02-01T09:05:40.475Z,4.69
2018-02-01T09:06:40.971Z,4.69
2018-02-01T09:07:40.690Z,4.69
2018-02-01T09:08:41.106Z,4.75
2018-02-01T09:09:40.723Z,4.69
2018-02-01T09:10:40.934Z,4.69
2018-02-01T09:11:40.759Z,4.62
2018-02-01T09:12:40.730Z,4.62
2018-02-01T09:13:40.701Z,4.69
2018-02-01T09:14:41.073Z,4.62
2018-02-01T09:15:40.594Z,4.62
2018-02-01T09:16:40.782Z,4.56
2018-02-01T09:17:41.628Z,4.5
2018-02-01T09:18:40.794Z,4.5
2018-02-01T09:19:40.580Z,4.56
2018-02-01T09:20:40.578Z,4.56
2018-02-01T09:21:40.530Z,4.56
2018-02-01T09:22:42.108Z,4.56
2018-02-01T09:23:39.899Z,4.5
2018-02-01T09:24:39.589Z,4.5
2018-02-01T09:25:39.975Z,4.44
2018-02-01T09:26:39.790Z,4.5
2018-02-01T09:27:40.003Z,4.44
2018-02-01T09:28:40.017Z,4.5
2018-02-01T09:29:39.834Z,4.5
2018-02-01T09:30:39.782Z,4.5
2018-02-01T09:31:39.698Z,4.5
2018-02-01T09:32:39.911Z,4.5
2018-02-01T09:33:39.741Z,4.5
2018-02-01T09:34:39.899Z,4.5
2018-02-01T09:35:39.991Z,4.56
2018-02-01T09:36:39.998Z,4.44
2018-02-01T09:37:39.951Z,4.5
2018-02-01T09:38:41.000Z,4.5
2018-02-01T09:39:40.108Z,4.5
2018-02-01T09:40:39.859Z,4.44
2018-02-01T09:41:40.763Z,4.5
2018-02-01T09:42:39.876Z,4.44
2018-02-01T09:43:40.689Z,4.44
2018-02-01T09:44:40.079Z,4.37
2018-02-01T09:45:39.639Z,4.37
2018-02-01T09:46:39.917Z,4.44
2018-02-01T09:47:39.683Z,4.37
2018-02-01T09:48:39.893Z,4.37
2018-02-01T09:49:39.911Z,4.37
2018-02-01T09:50:39.993Z,4.44
2018-02-01T09:51:39.949Z,4.44
2018-02-01T09:52:39.757Z,4.5
2018-02-01T09:53:40.046Z,4.44
2018-02-01T09:54:39.989Z,4.5
2018-02-01T09:55:40.089Z,4.5
2018-02-01T09:56:40.098Z,4.5
2018-02-01T09:57:39.836Z,4.56
2018-02-01T09:58:39.912Z,4.56
2018-02-01T09:59:39.990Z,4.62
2018-02-01T10:00:39.986Z,4.56
2018-02-01T10:01:40.129Z,4.56
2018-02-01T10:02:39.886Z,4.56
2018-02-01T10:03:40.084Z,4.56
2018-02-01T10:04:40.061Z,4.62
2018-02-01T10:05:40.083Z,4.62
2018-02-01T10:06:39.948Z,4.62
2018-02-01T10:07:40.023Z,4.56
2018-02-01T10:08:40.153Z,4.56
2018-02-01T10:09:40.140Z,4.62
2018-02-01T10:10:40.065Z,4.62
2018-02-01T10:11:39.865Z,4.62
2018-02-01T10:12:40.062Z,4.62
2018-02-01T10:13:40.253Z,4.62
2018-02-01T10:14:40.097Z,4.69
2018-02-01T10:15:40.079Z,4.75
2018-02-01T10:16:39.762Z,4.75
2018-02-01T10:17:40.092Z,4.81
2018-02-01T10:18:39.761Z,4.81
2018-02-01T10:19:39.909Z,4.87
2018-02-01T10:20:40.010Z,4.87
2018-02-01T10:21:39.822Z,4.87
2018-02-01T10:22:39.823Z,4.87
2018-02-01T10:23:40.203Z,4.94
2018-02-01T10:24:43.478Z,4.94
2018-02-01T10:25:40.179Z,4.94
2018-02-01T10:26:39.959Z,5
2018-02-01T10:27:40.088Z,5
2018-02-01T10:28:39.922Z,5.06
2018-02-01T10:29:40.056Z,5.06
2018-02-01T10:30:39.931Z,5.12
2018-02-01T10:31:41.100Z,5.12
2018-02-01T10:32:40.026Z,5.19
2018-02-01T10:33:39.936Z,5.19
2018-02-01T10:34:40.092Z,5.25
2018-02-01T10:35:40.500Z,5.25
2018-02-01T10:36:40.219Z,5.37
2018-02-01T10:37:39.867Z,5.37
2018-02-01T10:38:39.857Z,5.44
2018-02-01T10:39:40.161Z,5.5
2018-02-01T10:40:40.283Z,5.56
2018-02-01T10:41:40.062Z,5.56
2018-02-01T10:42:40.335Z,5.56
2018-02-01T10:43:39.938Z,5.62
2018-02-01T10:44:40.347Z,5.62
2018-02-01T10:45:40.230Z,5.69
2018-02-01T10:46:39.716Z,5.69
2018-02-01T10:47:40.180Z,5.81
2018-02-01T10:48:40.238Z,5.81
2018-02-01T10:49:39.957Z,5.81
2018-02-01T10:50:39.977Z,5.81
2018-02-01T10:51:40.093Z,5.81
2018-02-01T10:52:40.004Z,5.81
2018-02-01T10:53:39.831Z,5.81
2018-02-01T10:54:40.093Z,5.81
2018-02-01T10:55:39.986Z,5.81
2018-02-01T10:56:39.925Z,5.81
2018-02-01T10:57:40.301Z,5.75
2018-02-01T10:58:40.225Z,5.75
2018-02-01T10:59:40.326Z,5.75
2018-02-01T11:00:40.299Z,5.81
2018-02-01T11:01:40.308Z,5.87
2018-02-01T11:02:39.935Z,5.94
2018-02-01T11:03:39.933Z,5.94
2018-02-01T11:04:40.090Z,6
2018-02-01T11:05:39.899Z,6.12
2018-02-01T11:06:40.277Z,6.12
2018-02-01T11:07:40.409Z,6.19
2018-02-01T11:08:40.167Z,6.25
2018-02-01T11:09:40.262Z,6.25
2018-02-01T11:10:40.264Z,6.25
2018-02-01T11:11:40.033Z,6.19
2018-02-01T11:12:40.537Z,6.12
2018-02-01T11:13:40.144Z,6.19
2018-02-01T11:14:40.113Z,6.19
2018-02-01T11:15:40.134Z,6.25
2018-02-01T11:16:40.168Z,6.31
2018-02-01T11:17:40.143Z,6.44
2018-02-01T11:18:40.102Z,6.44
2018-02-01T11:19:39.856Z,6.5
2018-02-01T11:20:40.248Z,6.44
2018-02-01T11:21:39.906Z,6.5
2018-02-01T11:22:40.159Z,6.5
2018-02-01T11:23:40.423Z,6.56
2018-02-01T11:24:40.308Z,6.56
2018-02-01T11:25:39.959Z,6.62
2018-02-01T11:26:39.984Z,6.62
2018-02-01T11:27:40.137Z,6.69
2018-02-01T11:28:39.922Z,6.62
2018-02-01T11:29:40.186Z,6.62
2018-02-01T11:30:40.130Z,6.69
2018-02-01T11:31:40.257Z,6.69
2018-02-01T11:32:39.864Z,6.69
2018-02-01T11:33:39.994Z,6.69
2018-02-01T11:34:40.356Z,6.75
2018-02-01T11:35:40.134Z,6.75
2018-02-01T11:36:40.572Z,6.81
2018-02-01T11:37:40.037Z,6.87
2018-02-01T11:38:40.158Z,6.75
2018-02-01T11:39:39.897Z,6.69
2018-02-01T11:40:40.489Z,6.75
2018-02-01T11:41:40.379Z,6.75
2018-02-01T11:42:40.168Z,6.62
2018-02-01T11:43:40.043Z,6.69
2018-02-01T11:44:39.975Z,6.62
2018-02-01T11:45:40.181Z,6.56
2018-02-01T11:46:40.290Z,6.56
2018-02-01T11:47:40.173Z,6.44
2018-02-01T11:48:40.131Z,6.44
2018-02-01T11:49:40.191Z,6.44
2018-02-01T11:50:40.226Z,6.37
2018-02-01T11:51:39.919Z,6.25
2018-02-01T11:52:40.275Z,6.25
2018-02-01T11:53:40.111Z,6.19
2018-02-01T11:54:41.544Z,6.12
2018-02-01T11:55:40.094Z,6.12
2018-02-01T11:56:40.435Z,6.12
2018-02-01T11:57:40.119Z,6.12
2018-02-01T11:58:40.335Z,6.12
2018-02-01T11:59:41.100Z,6.12
2018-02-01T12:00:40.389Z,6.12
2018-02-01T12:01:40.331Z,6.12
2018-02-01T12:02:40.984Z,6.12
2018-02-01T12:03:40.214Z,6.19
2018-02-01T12:04:40.357Z,6.19
2018-02-01T12:05:40.079Z,6.19
2018-02-01T12:06:40.472Z,6.19
2018-02-01T12:07:41.840Z,6.25
2018-02-01T12:08:39.933Z,6.25
2018-02-01T12:09:39.911Z,6.25
2018-02-01T12:10:39.921Z,6.25
2018-02-01T12:11:40.053Z,6.25
2018-02-01T12:12:40.043Z,6.25
2018-02-01T12:13:41.418Z,6.19
2018-02-01T12:14:39.982Z,6.19
2018-02-01T12:15:39.925Z,6.19
2018-02-01T12:16:40.113Z,6.12
2018-02-01T12:17:40.074Z,6.06
2018-02-01T12:18:41.008Z,6.06
2018-02-01T12:19:40.313Z,6.06
2018-02-01T12:20:40.264Z,6
2018-02-01T12:21:40.180Z,6.06
2018-02-01T12:22:39.980Z,6.06
2018-02-01T12:23:42.604Z,6.12
2018-02-01T12:24:39.773Z,6.12
2018-02-01T12:25:39.686Z,6.06
2018-02-01T12:26:39.701Z,6.06
2018-02-01T12:27:39.806Z,6
2018-02-01T12:28:40.286Z,6
2018-02-01T12:29:39.801Z,6
2018-02-01T12:30:39.888Z,6.06
2018-02-01T12:31:39.940Z,6.06
2018-02-01T12:32:39.872Z,6.06
2018-02-01T12:33:40.043Z,6.06
2018-02-01T12:34:39.867Z,6.06
2018-02-01T12:35:41.000Z,6.06
2018-02-01T12:36:40.067Z,6
2018-02-01T12:37:40.131Z,6
2018-02-01T12:38:40.124Z,6
2018-02-01T12:39:40.168Z,6
2018-02-01T12:40:40.046Z,5.94
2018-02-01T12:41:40.272Z,5.94
2018-02-01T12:42:39.983Z,6
2018-02-01T12:43:39.918Z,5.94
2018-02-01T12:44:40.162Z,5.94
2018-02-01T12:45:40.272Z,5.94
2018-02-01T12:46:40.806Z,5.87
2018-02-01T12:47:40.032Z,5.94
2018-02-01T12:48:39.879Z,5.94
2018-02-01T12:49:40.114Z,5.87
2018-02-01T12:50:40.241Z,5.94
2018-02-01T12:51:40.121Z,5.94
2018-02-01T12:52:40.156Z,5.94
2018-02-01T12:53:40.188Z,6
2018-02-01T12:54:40.225Z,6
2018-02-01T12:55:40.339Z,6.06
2018-02-01T12:56:40.364Z,6.06
2018-02-01T12:57:40.452Z,6.06
2018-02-01T12:58:40.284Z,6.06
2018-02-01T12:59:40.176Z,6.06
2018-02-01T13:00:40.288Z,6.06
2018-02-01T13:01:40.347Z,6.06
2018-02-01T13:02:40.404Z,6.12
2018-02-01T13:03:40.389Z,6.12
2018-02-01T13:04:41.580Z,6.12
2018-02-01T13:05:40.365Z,6.19
2018-02-01T13:06:41.207Z,6.25
2018-02-01T13:07:40.456Z,6.19
2018-02-01T13:08:40.070Z,6.19
2018-02-01T13:09:40.453Z,6.19
2018-02-01T13:10:40.199Z,6.19
2018-02-01T13:11:40.897Z,6.25
2018-02-01T13:12:40.242Z,6.25
2018-02-01T13:13:42.045Z,6.31
2018-02-01T13:14:40.698Z,6.25
2018-02-01T13:15:41.167Z,6.25
2018-02-01T13:16:40.195Z,6.25
2018-02-01T13:17:40.815Z,6.25
2018-02-01T13:18:40.107Z,6.19
2018-02-01T13:19:40.320Z,6.19
2018-02-01T13:20:40.547Z,6.12
2018-02-01T13:21:39.980Z,6.12
2018-02-01T13:22:40.414Z,6.12
2018-02-01T13:23:40.338Z,6.12
2018-02-01T13:24:40.893Z,6.19
2018-02-01T13:25:41.448Z,6.12
2018-02-01T13:26:41.235Z,6.12
2018-02-01T13:27:40.356Z,6.12
2018-02-01T13:28:40.675Z,6.12